Terminal Aerodrome Forecast
Issued by NWS

Home | Current Version | Previous Version | Text Only | Print | Product List | Glossary On
Versions: 1 2 3 4 5 6 7 8 9 10 11 12 13 14
791
FTUS45 KPIH 181120
TAFSUN
TAF
KSUN 181120Z 1812/1918 31008KT P6SM SKC
     FM181800 14010KT P6SM SKC
     FM182100 21010KT P6SM SKC
     FM190400 31010KT P6SM SKC
      AMD LTD TO CLD VIS AND WIND TIL 181300=

USA.gov is the U.S. government's official web portal to all federal, state and local government web resources and services.